createdAt,value
2017-12-25T00:00:48.220Z,0
2017-12-25T00:01:48.210Z,0
2017-12-25T00:02:48.202Z,0
2017-12-25T00:03:48.207Z,0
2017-12-25T00:04:48.189Z,0
2017-12-25T00:05:48.171Z,0
2017-12-25T00:06:48.172Z,0
2017-12-25T00:07:48.168Z,0
2017-12-25T00:08:48.170Z,0
2017-12-25T00:09:48.158Z,0
2017-12-25T00:10:48.138Z,0
2017-12-25T00:11:48.132Z,0
2017-12-25T00:12:48.108Z,0
2017-12-25T00:13:48.095Z,0
2017-12-25T00:14:48.120Z,0
2017-12-25T00:15:48.090Z,0
2017-12-25T00:16:48.098Z,0
2017-12-25T00:17:48.094Z,0
2017-12-25T00:18:48.078Z,0
2017-12-25T00:19:48.055Z,0
2017-12-25T00:20:48.054Z,0
2017-12-25T00:21:48.051Z,0
2017-12-25T00:22:48.011Z,0
2017-12-25T00:23:48.026Z,0
2017-12-25T00:24:48.024Z,0
2017-12-25T00:25:47.986Z,0
2017-12-25T00:26:47.986Z,0
2017-12-25T00:27:48.000Z,0
2017-12-25T00:28:48.000Z,0
2017-12-25T00:29:47.965Z,0
2017-12-25T00:30:47.971Z,0
2017-12-25T00:31:47.948Z,0
2017-12-25T00:32:47.679Z,0
2017-12-25T00:33:47.679Z,0
2017-12-25T00:34:47.914Z,0
2017-12-25T00:35:47.649Z,0
2017-12-25T00:36:47.645Z,0
2017-12-25T00:37:47.899Z,0
2017-12-25T00:38:47.876Z,0
2017-12-25T00:39:47.635Z,0
2017-12-25T00:40:47.612Z,0
2017-12-25T00:41:47.852Z,0
2017-12-25T00:42:47.841Z,0
2017-12-25T00:43:47.830Z,0
2017-12-25T00:44:47.896Z,0
2017-12-25T00:45:47.820Z,0
2017-12-25T00:46:47.813Z,0
2017-12-25T00:47:47.807Z,0
2017-12-25T00:48:47.792Z,0
2017-12-25T00:49:47.795Z,0
2017-12-25T00:50:47.786Z,0
2017-12-25T00:51:47.787Z,0
2017-12-25T00:52:47.761Z,0
2017-12-25T00:53:47.526Z,0
2017-12-25T00:54:47.746Z,0
2017-12-25T00:55:47.751Z,0
2017-12-25T00:56:47.477Z,0
2017-12-25T00:57:47.718Z,0
2017-12-25T00:58:47.709Z,0
2017-12-25T00:59:47.692Z,0
2017-12-25T01:00:47.683Z,0
2017-12-25T01:01:47.686Z,0
2017-12-25T01:02:47.689Z,0
2017-12-25T01:03:47.665Z,0
2017-12-25T01:04:47.682Z,0
2017-12-25T01:05:47.648Z,0
2017-12-25T01:06:47.652Z,0
2017-12-25T01:07:47.366Z,0
2017-12-25T01:08:47.624Z,0
2017-12-25T01:09:47.611Z,0
2017-12-25T01:10:47.600Z,0
2017-12-25T01:11:47.591Z,0
2017-12-25T01:12:47.592Z,0
2017-12-25T01:13:47.588Z,0
2017-12-25T01:14:47.574Z,0
2017-12-25T01:15:47.570Z,0
2017-12-25T01:16:47.552Z,0
2017-12-25T01:17:47.535Z,0
2017-12-25T01:18:47.533Z,0
2017-12-25T01:19:47.530Z,0
2017-12-25T01:20:47.507Z,0
2017-12-25T01:21:47.522Z,0
2017-12-25T01:22:47.493Z,0
2017-12-25T01:23:47.488Z,0
2017-12-25T01:24:47.504Z,0
2017-12-25T01:25:47.482Z,0
2017-12-25T01:26:47.466Z,0
2017-12-25T01:27:47.455Z,0
2017-12-25T01:28:47.444Z,0
2017-12-25T01:29:47.439Z,0
2017-12-25T01:30:47.195Z,0
2017-12-25T01:31:47.425Z,0
2017-12-25T01:32:47.409Z,0
2017-12-25T01:33:47.420Z,0
2017-12-25T01:34:47.396Z,0
2017-12-25T01:35:47.139Z,0
2017-12-25T01:36:47.140Z,0
2017-12-25T01:37:47.371Z,0
2017-12-25T01:38:47.362Z,0
2017-12-25T01:39:47.353Z,0
2017-12-25T01:40:47.096Z,0
2017-12-25T01:41:47.072Z,0
2017-12-25T01:42:47.062Z,0
2017-12-25T01:43:47.329Z,0
2017-12-25T01:44:47.303Z,0
2017-12-25T01:45:47.049Z,0
2017-12-25T01:46:47.315Z,0
2017-12-25T01:47:47.016Z,0
2017-12-25T01:48:47.270Z,0
2017-12-25T01:49:47.282Z,0
2017-12-25T01:50:47.004Z,0
2017-12-25T01:51:46.989Z,0
2017-12-25T01:52:47.242Z,0
2017-12-25T01:53:47.220Z,0
2017-12-25T01:54:47.237Z,0
2017-12-25T01:55:47.209Z,0
2017-12-25T01:56:46.945Z,0
2017-12-25T01:57:47.201Z,0
2017-12-25T01:58:47.204Z,0
2017-12-25T01:59:47.192Z,0
2017-12-25T02:00:47.159Z,0
2017-12-25T02:01:47.153Z,0
2017-12-25T02:02:47.142Z,0
2017-12-25T02:03:46.879Z,0
2017-12-25T02:04:47.125Z,0
2017-12-25T02:05:47.126Z,0
2017-12-25T02:06:47.121Z,0
2017-12-25T02:07:47.104Z,0
2017-12-25T02:08:47.104Z,0
2017-12-25T02:09:47.096Z,0
2017-12-25T02:10:46.818Z,0
2017-12-25T02:11:47.071Z,0
2017-12-25T02:12:47.061Z,0
2017-12-25T02:13:47.041Z,0
2017-12-25T02:14:47.053Z,0
2017-12-25T02:15:47.042Z,0
2017-12-25T02:16:47.027Z,0
2017-12-25T02:17:47.026Z,0
2017-12-25T02:18:47.003Z,0
2017-12-25T02:19:47.007Z,0
2017-12-25T02:20:47.007Z,0
2017-12-25T02:21:46.975Z,0
2017-12-25T02:22:46.973Z,0
2017-12-25T02:23:46.963Z,0
2017-12-25T02:24:47.010Z,0
2017-12-25T02:25:46.936Z,0
2017-12-25T02:26:46.681Z,0
2017-12-25T02:27:46.928Z,0
2017-12-25T02:28:46.930Z,0
2017-12-25T02:29:46.921Z,0
2017-12-25T02:30:46.898Z,0
2017-12-25T02:31:46.914Z,0
2017-12-25T02:32:46.896Z,0
2017-12-25T02:33:46.618Z,0
2017-12-25T02:34:46.854Z,0
2017-12-25T02:35:46.856Z,0
2017-12-25T02:36:46.863Z,0
2017-12-25T02:37:46.853Z,0
2017-12-25T02:38:46.584Z,0
2017-12-25T02:39:46.817Z,0
2017-12-25T02:40:46.805Z,0
2017-12-25T02:41:46.830Z,0
2017-12-25T02:42:46.821Z,0
2017-12-25T02:43:46.786Z,0
2017-12-25T02:44:46.768Z,0
2017-12-25T02:45:46.775Z,0
2017-12-25T02:46:46.766Z,0
2017-12-25T02:47:46.239Z,0
2017-12-25T02:48:46.741Z,0
2017-12-25T02:49:46.479Z,0
2017-12-25T02:50:46.741Z,0
2017-12-25T02:51:46.730Z,0
2017-12-25T02:52:46.704Z,0
2017-12-25T02:53:46.703Z,0
2017-12-25T02:54:46.742Z,0
2017-12-25T02:55:46.692Z,0
2017-12-25T02:56:46.402Z,0
2017-12-25T02:57:46.658Z,0
2017-12-25T02:58:46.693Z,0
2017-12-25T02:59:46.690Z,0
2017-12-25T03:00:46.634Z,0
2017-12-25T03:01:46.641Z,0
2017-12-25T03:02:46.614Z,0
2017-12-25T03:03:46.605Z,0
2017-12-25T03:04:46.596Z,0
2017-12-25T03:05:46.601Z,0
2017-12-25T03:06:46.573Z,0
2017-12-25T03:07:46.575Z,0
2017-12-25T03:08:46.558Z,0
2017-12-25T03:09:46.307Z,0
2017-12-25T03:10:46.559Z,0
2017-12-25T03:11:46.522Z,0
2017-12-25T03:12:46.535Z,0
2017-12-25T03:13:46.526Z,0
2017-12-25T03:14:46.252Z,0
2017-12-25T03:15:46.499Z,0
2017-12-25T03:16:46.498Z,0
2017-12-25T03:17:46.472Z,0
2017-12-25T03:18:46.215Z,0
2017-12-25T03:19:46.451Z,0
2017-12-25T03:20:46.456Z,0
2017-12-25T03:21:46.437Z,0
2017-12-25T03:22:46.440Z,0
2017-12-25T03:23:46.421Z,0
2017-12-25T03:24:46.419Z,0
2017-12-25T03:25:46.422Z,0
2017-12-25T03:26:46.397Z,0
2017-12-25T03:27:46.427Z,0
2017-12-25T03:28:46.388Z,0
2017-12-25T03:29:46.367Z,0
2017-12-25T03:30:46.378Z,0
2017-12-25T03:31:45.850Z,0
2017-12-25T03:32:46.349Z,0
2017-12-25T03:33:46.326Z,0
2017-12-25T03:34:46.321Z,0
2017-12-25T03:35:46.321Z,0
2017-12-25T03:36:46.305Z,0
2017-12-25T03:37:46.294Z,0
2017-12-25T03:38:46.282Z,0
2017-12-25T03:39:46.271Z,0
2017-12-25T03:40:46.270Z,0
2017-12-25T03:41:46.261Z,0
2017-12-25T03:42:46.268Z,0
2017-12-25T03:43:46.259Z,0
2017-12-25T03:44:46.221Z,0
2017-12-25T03:45:46.219Z,0
2017-12-25T03:46:46.212Z,0
2017-12-25T03:47:46.216Z,0
2017-12-25T03:48:46.217Z,0
2017-12-25T03:49:46.186Z,0
2017-12-25T03:50:46.176Z,0
2017-12-25T03:51:46.165Z,0
2017-12-25T03:52:46.172Z,0
2017-12-25T03:53:46.147Z,0
2017-12-25T03:54:46.140Z,0
2017-12-25T03:55:46.136Z,0
2017-12-25T03:56:46.123Z,0
2017-12-25T03:57:46.135Z,0
2017-12-25T03:58:46.103Z,0
2017-12-25T03:59:46.103Z,0
2017-12-25T04:00:46.083Z,0
2017-12-25T04:01:45.817Z,0
2017-12-25T04:02:46.083Z,0
2017-12-25T04:03:46.055Z,0
2017-12-25T04:04:46.051Z,0
2017-12-25T04:05:46.059Z,0
2017-12-25T04:06:46.022Z,0
2017-12-25T04:07:46.031Z,0
2017-12-25T04:08:46.012Z,0
2017-12-25T04:09:46.005Z,0
2017-12-25T04:10:45.993Z,0
2017-12-25T04:11:45.993Z,0
2017-12-25T04:12:45.964Z,0
2017-12-25T04:13:45.957Z,0
2017-12-25T04:14:45.953Z,0
2017-12-25T04:15:45.950Z,0
2017-12-25T04:16:45.943Z,0
2017-12-25T04:17:45.945Z,0
2017-12-25T04:18:45.924Z,0
2017-12-25T04:19:45.907Z,0
2017-12-25T04:20:45.910Z,0
2017-12-25T04:21:45.902Z,0
2017-12-25T04:22:45.895Z,0
2017-12-25T04:23:45.896Z,0
2017-12-25T04:24:45.867Z,0
2017-12-25T04:25:45.866Z,0
2017-12-25T04:26:45.859Z,0
2017-12-25T04:27:45.832Z,0
2017-12-25T04:28:45.833Z,0
2017-12-25T04:29:45.835Z,0
2017-12-25T04:30:45.807Z,0
2017-12-25T04:31:45.805Z,0
2017-12-25T04:32:45.801Z,0
2017-12-25T04:33:45.779Z,0
2017-12-25T04:34:45.769Z,0
2017-12-25T04:35:45.755Z,0
2017-12-25T04:36:45.750Z,0
2017-12-25T04:37:45.761Z,0
2017-12-25T04:38:45.733Z,0
2017-12-25T04:39:45.743Z,0
2017-12-25T04:40:45.718Z,0
2017-12-25T04:41:45.706Z,0
2017-12-25T04:42:45.712Z,0
2017-12-25T04:43:45.716Z,0
2017-12-25T04:44:45.692Z,0
2017-12-25T04:45:45.682Z,0
2017-12-25T04:46:45.674Z,0
2017-12-25T04:47:45.661Z,0
2017-12-25T04:48:45.654Z,0
2017-12-25T04:49:45.646Z,0
2017-12-25T04:50:45.634Z,0
2017-12-25T04:51:45.639Z,0
2017-12-25T04:52:45.625Z,0
2017-12-25T04:53:45.614Z,0
2017-12-25T04:54:45.594Z,0
2017-12-25T04:55:45.599Z,0
2017-12-25T04:56:45.328Z,0
2017-12-25T04:57:45.572Z,0
2017-12-25T04:58:45.556Z,0
2017-12-25T04:59:45.299Z,0
2017-12-25T05:00:45.289Z,0
2017-12-25T05:01:45.526Z,0
2017-12-25T05:02:45.272Z,0
2017-12-25T05:03:45.251Z,0
2017-12-25T05:04:45.500Z,0
2017-12-25T05:05:45.494Z,0
2017-12-25T05:06:45.500Z,0
2017-12-25T05:07:45.487Z,0
2017-12-25T05:08:45.473Z,0
2017-12-25T05:09:45.208Z,0
2017-12-25T05:10:45.456Z,0
2017-12-25T05:11:45.432Z,0
2017-12-25T05:12:45.429Z,0
2017-12-25T05:13:45.436Z,0
2017-12-25T05:14:45.409Z,0
2017-12-25T05:15:45.137Z,0
2017-12-25T05:16:45.153Z,0
2017-12-25T05:17:45.392Z,0
2017-12-25T05:18:45.375Z,0
2017-12-25T05:19:45.380Z,0
2017-12-25T05:20:45.100Z,0
2017-12-25T05:21:45.339Z,0
2017-12-25T05:22:45.350Z,0
2017-12-25T05:23:45.337Z,0
2017-12-25T05:24:45.338Z,0
2017-12-25T05:25:45.305Z,0
2017-12-25T05:26:45.039Z,0
2017-12-25T05:27:45.301Z,0
2017-12-25T05:28:45.280Z,0
2017-12-25T05:29:45.283Z,0
2017-12-25T05:30:45.274Z,0
2017-12-25T05:31:45.304Z,0
2017-12-25T05:32:45.245Z,0
2017-12-25T05:33:45.239Z,0
2017-12-25T05:34:45.227Z,0
2017-12-25T05:35:44.957Z,0
2017-12-25T05:36:45.225Z,0
2017-12-25T05:37:45.204Z,0
2017-12-25T05:38:45.188Z,0
2017-12-25T05:39:45.183Z,0
2017-12-25T05:40:45.166Z,0
2017-12-25T05:41:45.169Z,0
2017-12-25T05:42:45.162Z,0
2017-12-25T05:43:45.148Z,0
2017-12-25T05:44:45.137Z,0
2017-12-25T05:45:45.139Z,0
2017-12-25T05:46:45.112Z,0
2017-12-25T05:47:45.106Z,0
2017-12-25T05:48:45.109Z,0
2017-12-25T05:49:45.102Z,0
2017-12-25T05:50:45.081Z,0
2017-12-25T05:51:45.085Z,0
2017-12-25T05:52:44.556Z,0
2017-12-25T05:53:45.055Z,0
2017-12-25T05:54:45.055Z,0
2017-12-25T05:55:45.038Z,0
2017-12-25T05:56:45.022Z,0
2017-12-25T05:57:45.032Z,0
2017-12-25T05:58:45.018Z,0
2017-12-25T05:59:44.749Z,0
2017-12-25T06:00:44.993Z,0
2017-12-25T06:01:45.003Z,0
2017-12-25T06:02:44.975Z,0
2017-12-25T06:03:44.961Z,0
2017-12-25T06:04:44.945Z,0
2017-12-25T06:05:44.938Z,0
2017-12-25T06:06:44.957Z,0
2017-12-25T06:07:44.937Z,0
2017-12-25T06:08:44.916Z,0
2017-12-25T06:09:44.899Z,0
2017-12-25T06:10:44.892Z,0
2017-12-25T06:11:44.892Z,0
2017-12-25T06:12:44.617Z,0
2017-12-25T06:13:44.875Z,0
2017-12-25T06:14:44.862Z,0
2017-12-25T06:15:44.869Z,0
2017-12-25T06:16:44.848Z,0
2017-12-25T06:17:44.853Z,0
2017-12-25T06:18:44.832Z,0
2017-12-25T06:19:44.832Z,0
2017-12-25T06:20:44.830Z,0
2017-12-25T06:21:44.541Z,0
2017-12-25T06:22:44.806Z,0
2017-12-25T06:23:44.279Z,0
2017-12-25T06:24:44.766Z,0
2017-12-25T06:25:44.754Z,0
2017-12-25T06:26:44.764Z,0
2017-12-25T06:27:44.764Z,0
2017-12-25T06:28:44.734Z,0
2017-12-25T06:29:44.728Z,0
2017-12-25T06:30:44.710Z,0
2017-12-25T06:31:44.712Z,0
2017-12-25T06:32:44.510Z,0
2017-12-25T06:33:44.457Z,0
2017-12-25T06:34:44.687Z,0
2017-12-25T06:35:44.678Z,0
2017-12-25T06:36:44.665Z,0
2017-12-25T06:37:44.398Z,0
2017-12-25T06:38:44.644Z,0
2017-12-25T06:39:44.642Z,0
2017-12-25T06:40:44.630Z,0
2017-12-25T06:41:44.614Z,0
2017-12-25T06:42:44.347Z,0
2017-12-25T06:43:44.594Z,0
2017-12-25T06:44:44.587Z,0
2017-12-25T06:45:44.578Z,0
2017-12-25T06:46:44.571Z,0
2017-12-25T06:47:44.556Z,4
2017-12-25T06:48:44.554Z,4
2017-12-25T06:49:44.539Z,0
2017-12-25T06:50:44.530Z,4
2017-12-25T06:51:44.536Z,4
2017-12-25T06:52:44.509Z,4
2017-12-25T06:53:44.507Z,4
2017-12-25T06:54:44.500Z,8
2017-12-25T06:55:44.488Z,8
2017-12-25T06:56:44.477Z,8
2017-12-25T06:57:44.477Z,12
2017-12-25T06:58:44.463Z,12
2017-12-25T06:59:44.457Z,12
2017-12-25T07:00:44.431Z,12
2017-12-25T07:01:44.429Z,12
2017-12-25T07:02:44.419Z,12
2017-12-25T07:03:44.414Z,12
2017-12-25T07:04:44.157Z,16
2017-12-25T07:05:44.396Z,16
2017-12-25T07:06:44.391Z,16
2017-12-25T07:07:44.120Z,20
2017-12-25T07:08:44.406Z,24
2017-12-25T07:09:44.091Z,28
2017-12-25T07:10:44.362Z,28
2017-12-25T07:11:44.075Z,32
2017-12-25T07:12:44.335Z,40
2017-12-25T07:13:44.317Z,44
2017-12-25T07:14:44.319Z,48
2017-12-25T07:15:44.312Z,56
2017-12-25T07:16:44.290Z,64
2017-12-25T07:17:44.299Z,60
2017-12-25T07:18:44.280Z,64
2017-12-25T07:19:44.003Z,60
2017-12-25T07:20:44.262Z,68
2017-12-25T07:21:44.235Z,68
2017-12-25T07:22:44.230Z,80
2017-12-25T07:23:44.228Z,108
2017-12-25T07:24:44.224Z,144
2017-12-25T07:25:44.210Z,156
2017-12-25T07:26:44.199Z,176
2017-12-25T07:27:44.195Z,168
2017-12-25T07:28:44.185Z,152
2017-12-25T07:29:43.923Z,160
2017-12-25T07:30:44.171Z,184
2017-12-25T07:31:44.177Z,224
2017-12-25T07:32:44.132Z,224
2017-12-25T07:33:43.867Z,216
2017-12-25T07:34:44.116Z,240
2017-12-25T07:35:44.105Z,260
2017-12-25T07:36:44.123Z,284
2017-12-25T07:37:44.099Z,300
2017-12-25T07:38:44.083Z,320
2017-12-25T07:39:44.091Z,332
2017-12-25T07:40:43.813Z,352
2017-12-25T07:41:44.062Z,384
2017-12-25T07:42:44.048Z,356
2017-12-25T07:43:44.042Z,400
2017-12-25T07:44:44.033Z,392
2017-12-25T07:45:43.764Z,396
2017-12-25T07:46:44.020Z,396
2017-12-25T07:47:44.008Z,408
2017-12-25T07:48:43.991Z,484
2017-12-25T07:49:43.989Z,476
2017-12-25T07:50:43.710Z,496
2017-12-25T07:51:43.717Z,512
2017-12-25T07:52:43.690Z,544
2017-12-25T07:53:43.963Z,512
2017-12-25T07:54:43.975Z,540
2017-12-25T07:55:43.663Z,632
2017-12-25T07:56:43.655Z,540
2017-12-25T07:57:43.924Z,580
2017-12-25T07:58:43.912Z,616
2017-12-25T07:59:43.904Z,636
2017-12-25T08:00:43.885Z,708
2017-12-25T08:01:43.660Z,604
2017-12-25T08:02:43.864Z,628
2017-12-25T08:03:43.590Z,636
2017-12-25T08:04:43.852Z,680
2017-12-25T08:05:43.576Z,744
2017-12-25T08:06:43.821Z,820
2017-12-25T08:07:43.817Z,868
2017-12-25T08:08:43.543Z,864
2017-12-25T08:09:43.804Z,808
2017-12-25T08:10:43.787Z,884
2017-12-25T08:11:43.777Z,852
2017-12-25T08:12:43.820Z,884
2017-12-25T08:13:43.511Z,928
2017-12-25T08:14:43.763Z,912
2017-12-25T08:15:43.486Z,884
2017-12-25T08:16:43.750Z,804
2017-12-25T08:17:43.716Z,772
2017-12-25T08:18:43.720Z,816
2017-12-25T08:19:43.445Z,884
2017-12-25T08:20:43.721Z,924
2017-12-25T08:21:43.685Z,1008
2017-12-25T08:22:43.681Z,1060
2017-12-25T08:23:43.157Z,1016
2017-12-25T08:24:43.408Z,1216
2017-12-25T08:25:43.656Z,1088
2017-12-25T08:26:43.377Z,1184
2017-12-25T08:27:43.410Z,1228
2017-12-25T08:28:43.376Z,976
2017-12-25T08:29:43.617Z,1000
2017-12-25T08:30:43.600Z,888
2017-12-25T08:31:43.600Z,980
2017-12-25T08:32:43.598Z,1084
2017-12-25T08:33:43.322Z,1132
2017-12-25T08:34:43.303Z,944
2017-12-25T08:35:43.555Z,1084
2017-12-25T08:36:43.554Z,1068
2017-12-25T08:37:43.531Z,1096
2017-12-25T08:38:43.536Z,1048
2017-12-25T08:39:43.534Z,1052
2017-12-25T08:40:43.261Z,896
2017-12-25T08:41:43.502Z,812
2017-12-25T08:42:43.513Z,876
2017-12-25T08:43:43.499Z,900
2017-12-25T08:44:43.476Z,904
2017-12-25T08:45:43.461Z,1036
2017-12-25T08:46:43.454Z,1168
2017-12-25T08:47:43.446Z,1160
2017-12-25T08:48:43.439Z,1228
2017-12-25T08:49:43.429Z,1152
2017-12-25T08:50:43.439Z,1008
2017-12-25T08:51:43.415Z,1080
2017-12-25T08:52:43.406Z,1276
2017-12-25T08:53:43.387Z,1168
2017-12-25T08:54:43.383Z,1136
2017-12-25T08:55:43.381Z,1196
2017-12-25T08:56:43.372Z,1372
2017-12-25T08:57:43.364Z,1496
2017-12-25T08:58:43.351Z,1636
2017-12-25T08:59:43.341Z,1880
2017-12-25T09:00:43.353Z,2200
2017-12-25T09:01:43.421Z,2172
2017-12-25T09:02:43.327Z,2012
2017-12-25T09:03:43.297Z,2132
2017-12-25T09:04:43.296Z,2260
2017-12-25T09:05:43.289Z,2140
2017-12-25T09:06:43.292Z,1928
2017-12-25T09:07:43.273Z,1808
2017-12-25T09:08:43.253Z,1828
2017-12-25T09:09:43.255Z,1920
2017-12-25T09:10:43.003Z,2052
2017-12-25T09:11:43.242Z,1768
2017-12-25T09:12:43.243Z,1916
2017-12-25T09:13:43.206Z,1952
2017-12-25T09:14:43.212Z,2216
2017-12-25T09:15:43.201Z,2348
2017-12-25T09:16:43.194Z,2576
2017-12-25T09:17:42.925Z,2536
2017-12-25T09:18:43.172Z,2372
2017-12-25T09:19:43.165Z,2188
2017-12-25T09:20:43.153Z,2288
2017-12-25T09:21:43.142Z,2300
2017-12-25T09:22:43.143Z,2292
2017-12-25T09:23:43.121Z,2540
2017-12-25T09:24:43.128Z,2368
2017-12-25T09:25:43.118Z,2244
2017-12-25T09:26:43.104Z,2192
2017-12-25T09:27:43.083Z,2112
2017-12-25T09:28:43.093Z,2276
2017-12-25T09:29:43.075Z,2604
2017-12-25T09:30:43.058Z,2640
2017-12-25T09:31:43.053Z,2712
2017-12-25T09:32:43.092Z,2632
2017-12-25T09:33:43.051Z,3004
2017-12-25T09:34:43.104Z,3340
2017-12-25T09:35:43.038Z,3360
2017-12-25T09:36:42.755Z,3504
2017-12-25T09:37:42.815Z,3260
2017-12-25T09:38:42.989Z,3036
2017-12-25T09:39:42.984Z,2756
2017-12-25T09:40:42.982Z,2540
2017-12-25T09:41:42.984Z,2404
2017-12-25T09:42:42.962Z,2512
2017-12-25T09:43:43.026Z,2528
2017-12-25T09:44:42.946Z,2872
2017-12-25T09:45:42.940Z,2976
2017-12-25T09:46:42.944Z,3400
2017-12-25T09:47:42.930Z,4048
2017-12-25T09:48:42.925Z,3884
2017-12-25T09:49:42.897Z,3804
2017-12-25T09:50:42.899Z,3552
2017-12-25T09:51:42.918Z,3032
2017-12-25T09:52:42.881Z,2528
2017-12-25T09:53:42.872Z,2308
2017-12-25T09:54:42.854Z,2192
2017-12-25T09:55:42.836Z,2124
2017-12-25T09:56:42.694Z,2172
2017-12-25T09:57:42.880Z,2408
2017-12-25T09:58:42.875Z,2356
2017-12-25T09:59:42.822Z,2332
2017-12-25T10:00:42.814Z,2228
2017-12-25T10:01:42.800Z,2184
2017-12-25T10:02:42.842Z,2148
2017-12-25T10:03:42.795Z,2120
2017-12-25T10:04:42.779Z,2016
2017-12-25T10:05:42.761Z,2024
2017-12-25T10:06:42.751Z,1920
2017-12-25T10:07:42.744Z,1800
2017-12-25T10:08:42.741Z,2156
2017-12-25T10:09:42.721Z,1984
2017-12-25T10:10:42.712Z,1828
2017-12-25T10:11:42.713Z,1800
2017-12-25T10:12:42.718Z,1864
2017-12-25T10:13:42.698Z,1988
2017-12-25T10:14:42.421Z,2116
2017-12-25T10:15:42.682Z,2300
2017-12-25T10:16:42.413Z,2252
2017-12-25T10:17:42.649Z,2196
2017-12-25T10:18:42.642Z,2092
2017-12-25T10:19:42.378Z,2232
2017-12-25T10:20:42.641Z,2016
2017-12-25T10:21:42.360Z,2400
2017-12-25T10:22:42.609Z,2112
2017-12-25T10:23:42.351Z,2080
2017-12-25T10:24:42.599Z,2520
2017-12-25T10:25:42.617Z,2592
2017-12-25T10:26:42.616Z,2448
2017-12-25T10:27:42.574Z,2456
2017-12-25T10:28:42.575Z,3048
2017-12-25T10:29:42.550Z,3276
2017-12-25T10:30:42.540Z,3844
2017-12-25T10:31:42.537Z,4272
2017-12-25T10:32:42.532Z,4584
2017-12-25T10:33:42.262Z,5184
2017-12-25T10:34:42.521Z,5504
2017-12-25T10:35:42.510Z,5272
2017-12-25T10:36:42.493Z,5260
2017-12-25T10:37:42.479Z,4804
2017-12-25T10:38:42.212Z,4492
2017-12-25T10:39:42.481Z,4256
2017-12-25T10:40:42.458Z,3896
2017-12-25T10:41:42.456Z,3956
2017-12-25T10:42:42.470Z,4028
2017-12-25T10:43:42.438Z,4324
2017-12-25T10:44:42.450Z,4568
2017-12-25T10:45:42.430Z,4468
2017-12-25T10:46:42.416Z,4228
2017-12-25T10:47:42.234Z,4052
2017-12-25T10:48:42.131Z,4148
2017-12-25T10:49:42.139Z,4072
2017-12-25T10:50:42.372Z,3676
2017-12-25T10:51:42.359Z,3708
2017-12-25T10:52:42.355Z,3928
2017-12-25T10:53:42.352Z,3632
2017-12-25T10:54:42.355Z,3124
2017-12-25T10:55:42.077Z,3196
2017-12-25T10:56:42.325Z,3504
2017-12-25T10:57:42.321Z,3716
2017-12-25T10:58:42.314Z,3940
2017-12-25T10:59:42.315Z,4032
2017-12-25T11:00:42.301Z,4024
2017-12-25T11:01:42.283Z,4400
2017-12-25T11:02:42.017Z,4660
2017-12-25T11:03:42.004Z,4744
2017-12-25T11:04:42.265Z,4568
2017-12-25T11:05:42.001Z,4168
2017-12-25T11:06:42.286Z,4160
2017-12-25T11:07:42.230Z,3620
2017-12-25T11:08:41.712Z,3148
2017-12-25T11:09:42.214Z,2868
2017-12-25T11:10:42.201Z,2896
2017-12-25T11:11:41.933Z,3428
2017-12-25T11:12:42.270Z,3420
2017-12-25T11:13:41.940Z,3152
2017-12-25T11:14:42.198Z,3520
2017-12-25T11:15:42.179Z,3624
2017-12-25T11:16:41.649Z,3492
2017-12-25T11:17:42.159Z,3408
2017-12-25T11:18:42.135Z,3148
2017-12-25T11:19:42.141Z,3272
2017-12-25T11:20:42.139Z,3488
2017-12-25T11:21:41.885Z,3704
2017-12-25T11:22:41.853Z,3668
2017-12-25T11:23:41.849Z,3472
2017-12-25T11:24:42.106Z,3260
2017-12-25T11:25:41.816Z,3624
2017-12-25T11:26:41.819Z,4100
2017-12-25T11:27:41.828Z,4176
2017-12-25T11:28:42.059Z,4000
2017-12-25T11:29:42.069Z,4244
2017-12-25T11:30:41.789Z,4344
2017-12-25T11:31:42.041Z,4320
2017-12-25T11:32:41.764Z,4284
2017-12-25T11:33:42.020Z,3764
2017-12-25T11:34:42.111Z,3112
2017-12-25T11:35:42.032Z,2632
2017-12-25T11:36:41.752Z,2540
2017-12-25T11:37:41.720Z,2256
2017-12-25T11:38:41.729Z,2516
2017-12-25T11:39:41.717Z,2536
2017-12-25T11:40:41.986Z,2264
2017-12-25T11:41:41.953Z,2140
2017-12-25T11:42:41.945Z,2180
2017-12-25T11:43:41.672Z,2388
2017-12-25T11:44:41.938Z,2876
2017-12-25T11:45:41.654Z,3244
2017-12-25T11:46:41.919Z,2700
2017-12-25T11:47:41.972Z,2716
2017-12-25T11:48:41.895Z,2956
2017-12-25T11:49:41.894Z,3368
2017-12-25T11:50:41.881Z,3300
2017-12-25T11:51:41.878Z,2912
2017-12-25T11:52:41.864Z,2808
2017-12-25T11:53:41.902Z,2828
2017-12-25T11:54:41.595Z,2884
2017-12-25T11:55:41.848Z,2784
2017-12-25T11:56:41.843Z,2444
2017-12-25T11:57:41.572Z,2748
2017-12-25T11:58:41.812Z,3060
2017-12-25T11:59:41.799Z,2924
2017-12-25T12:00:41.791Z,2772
2017-12-25T12:01:41.787Z,2684
2017-12-25T12:02:41.774Z,2368
2017-12-25T12:03:41.789Z,2828
2017-12-25T12:04:41.756Z,2724
2017-12-25T12:05:41.763Z,2648
2017-12-25T12:06:41.781Z,2816
2017-12-25T12:07:41.734Z,2768
2017-12-25T12:08:41.727Z,3036
2017-12-25T12:09:41.725Z,3852
2017-12-25T12:10:41.716Z,4052
2017-12-25T12:11:41.449Z,3560
2017-12-25T12:12:41.688Z,2876
2017-12-25T12:13:41.702Z,2580
2017-12-25T12:14:41.695Z,2528
2017-12-25T12:15:41.401Z,2508
2017-12-25T12:16:41.397Z,2732
2017-12-25T12:17:41.665Z,2960
2017-12-25T12:18:41.641Z,2788
2017-12-25T12:19:41.703Z,2516
2017-12-25T12:20:41.640Z,2448
2017-12-25T12:21:41.622Z,2760
2017-12-25T12:22:41.611Z,3148
2017-12-25T12:23:41.398Z,3180
2017-12-25T12:24:41.606Z,3204
2017-12-25T12:25:41.587Z,3220
2017-12-25T12:26:41.576Z,3204
2017-12-25T12:27:41.566Z,2940
2017-12-25T12:28:41.576Z,2740
2017-12-25T12:29:41.558Z,2536
2017-12-25T12:30:41.532Z,2636
2017-12-25T12:31:41.547Z,2816
2017-12-25T12:32:41.534Z,3216
2017-12-25T12:33:41.523Z,3320
2017-12-25T12:34:41.516Z,3280
2017-12-25T12:35:41.487Z,3072
2017-12-25T12:36:41.486Z,3152
2017-12-25T12:37:41.477Z,3236
2017-12-25T12:38:41.209Z,3048
2017-12-25T12:39:41.472Z,2856
2017-12-25T12:40:41.448Z,2712
2017-12-25T12:41:41.453Z,2624
2017-12-25T12:42:41.176Z,2540
2017-12-25T12:43:41.443Z,2592
2017-12-25T12:44:41.463Z,2588
2017-12-25T12:45:41.416Z,2508
2017-12-25T12:46:41.402Z,2428
2017-12-25T12:47:41.129Z,2280
2017-12-25T12:48:41.388Z,2100
2017-12-25T12:49:41.381Z,2116
2017-12-25T12:50:41.394Z,2068
2017-12-25T12:51:41.385Z,2016
2017-12-25T12:52:41.351Z,1808
2017-12-25T12:53:41.345Z,1600
2017-12-25T12:54:41.351Z,1464
2017-12-25T12:55:41.336Z,1444
2017-12-25T12:56:41.324Z,1532
2017-12-25T12:57:41.303Z,1664
2017-12-25T12:58:41.313Z,1852
2017-12-25T12:59:41.296Z,1980
2017-12-25T13:00:41.019Z,2056
2017-12-25T13:01:41.284Z,1952
2017-12-25T13:02:41.276Z,1856
2017-12-25T13:03:41.255Z,1824
2017-12-25T13:04:41.258Z,2020
2017-12-25T13:05:41.242Z,1836
2017-12-25T13:06:41.236Z,1632
2017-12-25T13:07:41.245Z,1516
2017-12-25T13:08:41.231Z,1432
2017-12-25T13:09:41.234Z,1300
2017-12-25T13:10:41.193Z,1320
2017-12-25T13:11:41.255Z,1404
2017-12-25T13:12:40.931Z,1528
2017-12-25T13:13:41.172Z,1484
2017-12-25T13:14:41.178Z,1400
2017-12-25T13:15:41.151Z,1316
2017-12-25T13:16:41.145Z,1320
2017-12-25T13:17:40.868Z,1380
2017-12-25T13:18:40.878Z,1244
2017-12-25T13:19:41.120Z,1208
2017-12-25T13:20:41.111Z,1220
2017-12-25T13:21:41.108Z,1200
2017-12-25T13:22:41.085Z,1168
2017-12-25T13:23:40.831Z,1144
2017-12-25T13:24:41.090Z,1168
2017-12-25T13:25:41.073Z,1268
2017-12-25T13:26:41.064Z,1176
2017-12-25T13:27:41.039Z,1092
2017-12-25T13:28:41.094Z,1088
2017-12-25T13:29:41.018Z,1044
2017-12-25T13:30:40.764Z,1152
2017-12-25T13:31:40.758Z,1168
2017-12-25T13:32:40.996Z,1056
2017-12-25T13:33:41.020Z,1060
2017-12-25T13:34:40.996Z,980
2017-12-25T13:35:40.965Z,884
2017-12-25T13:36:40.960Z,900
2017-12-25T13:37:40.964Z,948
2017-12-25T13:38:40.684Z,852
2017-12-25T13:39:40.958Z,800
2017-12-25T13:40:40.937Z,840
2017-12-25T13:41:40.919Z,796
2017-12-25T13:42:40.907Z,844
2017-12-25T13:43:40.914Z,944
2017-12-25T13:44:40.929Z,908
2017-12-25T13:45:40.872Z,816
2017-12-25T13:46:40.616Z,876
2017-12-25T13:47:40.604Z,1032
2017-12-25T13:48:40.608Z,1172
2017-12-25T13:49:40.869Z,1284
2017-12-25T13:50:40.874Z,1396
2017-12-25T13:51:40.827Z,1456
2017-12-25T13:52:40.839Z,1396
2017-12-25T13:53:40.835Z,1312
2017-12-25T13:54:40.801Z,1300
2017-12-25T13:55:40.820Z,1332
2017-12-25T13:56:40.514Z,1300
2017-12-25T13:57:40.776Z,1280
2017-12-25T13:58:40.779Z,1272
2017-12-25T13:59:40.762Z,1248
2017-12-25T14:00:40.767Z,1268
2017-12-25T14:01:40.731Z,1240
2017-12-25T14:02:40.743Z,1212
2017-12-25T14:03:40.842Z,1188
2017-12-25T14:04:40.728Z,1132